createdAt,value
2018-03-23T00:01:47.444Z,90.96
2018-03-23T00:04:14.969Z,90.91
2018-03-23T00:06:42.498Z,91.20
2018-03-23T00:09:10.021Z,91.33
2018-03-23T00:11:37.548Z,92.30
2018-03-23T00:14:05.173Z,92.63
2018-03-23T00:16:32.693Z,93.06
2018-03-23T00:19:00.230Z,92.50
2018-03-23T00:21:27.787Z,92.54
2018-03-23T00:23:55.311Z,92.64
2018-03-23T00:26:22.828Z,92.80
2018-03-23T00:28:50.365Z,92.84
2018-03-23T00:31:17.891Z,92.17
2018-03-23T00:33:46.251Z,92.68
2018-03-23T00:36:13.782Z,92.65
2018-03-23T00:38:41.392Z,92.58
2018-03-23T00:41:08.908Z,92.20
2018-03-23T00:43:36.496Z,93.00
2018-03-23T00:46:04.032Z,92.77
2018-03-23T00:48:31.558Z,92.65
2018-03-23T00:50:59.090Z,92.81
2018-03-23T00:53:26.606Z,91.98
2018-03-23T00:55:54.135Z,92.49
2018-03-23T00:58:21.664Z,92.58
2018-03-23T01:00:49.230Z,92.94
2018-03-23T01:03:16.756Z,92.73
2018-03-23T01:05:44.274Z,92.75
2018-03-23T01:08:11.805Z,92.75
2018-03-23T01:10:39.322Z,92.06
2018-03-23T01:13:06.853Z,91.45
2018-03-23T01:15:34.484Z,90.92
2018-03-23T01:18:02.009Z,90.77
2018-03-23T01:20:29.538Z,90.94
2018-03-23T01:22:57.129Z,91.06
2018-03-23T01:25:24.648Z,91.07
2018-03-23T01:27:52.183Z,90.86
2018-03-23T01:30:19.711Z,90.88
2018-03-23T01:32:47.245Z,90.65
2018-03-23T01:35:14.790Z,90.46
2018-03-23T01:37:42.423Z,90.57
2018-03-23T01:40:09.983Z,90.51
2018-03-23T01:42:37.497Z,90.80
2018-03-23T01:45:05.025Z,90.87
2018-03-23T01:47:32.561Z,91.05
2018-03-23T01:50:00.076Z,91.21
2018-03-23T01:52:27.682Z,91.26
2018-03-23T01:54:55.240Z,91.19
2018-03-23T01:57:22.765Z,90.90
2018-03-23T01:59:50.362Z,91.04
2018-03-23T02:02:17.879Z,91.26
2018-03-23T02:04:45.401Z,90.99
2018-03-23T02:07:12.934Z,90.87
2018-03-23T02:09:40.449Z,90.90
2018-03-23T02:12:07.976Z,90.67
2018-03-23T02:14:35.512Z,90.61
2018-03-23T02:17:03.043Z,90.57
2018-03-23T02:19:30.601Z,90.50
2018-03-23T02:21:58.161Z,90.52
2018-03-23T02:24:25.757Z,90.36
2018-03-23T02:26:53.282Z,90.67
2018-03-23T02:29:20.982Z,90.25
2018-03-23T02:31:48.508Z,90.14
2018-03-23T02:34:16.102Z,90.19
2018-03-23T02:36:43.659Z,90.14
2018-03-23T02:39:11.187Z,89.99
2018-03-23T02:41:38.714Z,90.02
2018-03-23T02:44:06.263Z,89.99
2018-03-23T02:46:33.792Z,90.03
2018-03-23T02:49:01.324Z,89.86
2018-03-23T02:51:28.851Z,89.75
2018-03-23T02:53:56.375Z,89.83
2018-03-23T02:56:23.889Z,89.85
2018-03-23T02:58:51.413Z,89.67
2018-03-23T03:01:19.071Z,89.66
2018-03-23T03:03:46.632Z,89.67
2018-03-23T03:06:14.152Z,89.38
2018-03-23T03:08:41.680Z,89.38
2018-03-23T03:11:09.213Z,89.35
2018-03-23T03:13:36.854Z,89.41
2018-03-23T03:16:04.384Z,89.31
2018-03-23T03:18:31.929Z,89.36
2018-03-23T03:20:59.520Z,89.20
2018-03-23T03:23:27.044Z,88.96
2018-03-23T03:25:54.590Z,89.41
2018-03-23T03:28:22.149Z,89.45
2018-03-23T03:30:49.710Z,89.46
2018-03-23T03:33:17.244Z,89.49
2018-03-23T03:35:44.777Z,89.49
2018-03-23T03:38:12.293Z,89.42
2018-03-23T03:40:39.914Z,89.42
2018-03-23T03:43:07.449Z,89.51
2018-03-23T03:45:35.032Z,89.21
2018-03-23T03:48:02.570Z,89.05
2018-03-23T03:50:30.099Z,89.37
2018-03-23T03:52:57.638Z,89.13
2018-03-23T03:55:25.281Z,88.92
2018-03-23T03:57:52.810Z,88.94
2018-03-23T04:00:20.321Z,89.03
2018-03-23T04:02:47.857Z,88.73
2018-03-23T04:05:15.385Z,88.37
2018-03-23T04:07:42.906Z,88.78
2018-03-23T04:10:10.537Z,88.64
2018-03-23T04:12:38.097Z,88.41
2018-03-23T04:15:05.623Z,88.44
2018-03-23T04:17:33.216Z,88.39
2018-03-23T04:20:00.739Z,88.28
2018-03-23T04:22:28.263Z,88.05
2018-03-23T04:24:55.794Z,88.09
2018-03-23T04:27:23.344Z,88.09
2018-03-23T04:29:50.876Z,88.21
2018-03-23T04:32:18.393Z,88.09
2018-03-23T04:34:45.930Z,88.08
2018-03-23T04:37:13.461Z,87.77
2018-03-23T04:39:40.995Z,87.62
2018-03-23T04:42:08.541Z,87.57
2018-03-23T04:44:36.097Z,87.37
2018-03-23T04:47:03.627Z,87.39
2018-03-23T04:49:31.186Z,87.38
2018-03-23T04:51:58.724Z,87.39
2018-03-23T04:54:26.245Z,87.47
2018-03-23T04:56:53.793Z,87.48
2018-03-23T04:59:21.310Z,87.45
2018-03-23T05:01:48.856Z,87.39
2018-03-23T05:04:16.370Z,87.40
2018-03-23T05:06:43.899Z,87.44
2018-03-23T05:09:11.432Z,87.32
2018-03-23T05:11:39.015Z,87.28
2018-03-23T05:14:06.546Z,87.37
2018-03-23T05:16:34.070Z,87.31
2018-03-23T05:19:01.589Z,87.37
2018-03-23T05:21:29.120Z,87.16
2018-03-23T05:23:56.687Z,87.19
2018-03-23T05:26:24.245Z,86.99
2018-03-23T05:28:51.806Z,87.12
2018-03-23T05:31:19.366Z,87.16
2018-03-23T05:33:46.886Z,86.98
2018-03-23T05:36:14.400Z,86.88
2018-03-23T05:38:41.946Z,86.93
2018-03-23T05:41:09.461Z,87.07
2018-03-23T05:43:37.091Z,86.93
2018-03-23T05:46:04.617Z,86.92
2018-03-23T05:48:32.144Z,86.89
2018-03-23T05:50:59.676Z,86.98
2018-03-23T05:53:27.198Z,87.31
2018-03-23T05:55:54.750Z,86.79
2018-03-23T05:58:22.323Z,86.73
2018-03-23T06:00:49.915Z,86.60
2018-03-23T06:03:17.470Z,86.82
2018-03-23T06:05:45.003Z,86.62
2018-03-23T06:08:12.520Z,86.59
2018-03-23T06:10:40.047Z,86.49
2018-03-23T06:13:07.582Z,86.29
2018-03-23T06:15:35.172Z,86.43
2018-03-23T06:18:02.708Z,86.44
2018-03-23T06:20:30.225Z,86.39
2018-03-23T06:22:57.848Z,86.27
2018-03-23T06:25:25.377Z,86.38
2018-03-23T06:27:52.902Z,86.09
2018-03-23T06:30:20.532Z,86.18
2018-03-23T06:32:48.057Z,86.31
2018-03-23T06:35:15.576Z,86.12
2018-03-23T06:37:43.111Z,85.95
2018-03-23T06:40:10.638Z,86.23
2018-03-23T06:42:38.152Z,86.26
2018-03-23T06:45:05.684Z,86.21
2018-03-23T06:47:33.215Z,86.28
2018-03-23T06:50:00.807Z,85.74
2018-03-23T06:52:28.332Z,85.72
2018-03-23T06:54:55.850Z,85.60
2018-03-23T06:57:23.386Z,85.76
2018-03-23T06:59:50.901Z,85.47
2018-03-23T07:02:18.432Z,85.47
2018-03-23T07:04:46.051Z,85.11
2018-03-23T07:07:13.588Z,84.63
2018-03-23T07:09:41.109Z,84.88
2018-03-23T07:12:08.749Z,84.41
2018-03-23T07:14:36.273Z,83.98
2018-03-23T07:17:03.867Z,83.40
2018-03-23T07:19:31.390Z,83.32
2018-03-23T07:21:58.921Z,83.45
2018-03-23T07:24:26.445Z,83.24
2018-03-23T07:26:53.989Z,83.23
2018-03-23T07:29:21.559Z,83.34
2018-03-23T07:31:49.090Z,83.00
2018-03-23T07:34:16.686Z,83.00
2018-03-23T07:36:44.226Z,83.07
2018-03-23T07:39:11.758Z,83.42
2018-03-23T07:41:39.287Z,83.59
2018-03-23T07:44:06.920Z,83.42
2018-03-23T07:46:34.450Z,83.06
2018-03-23T07:49:01.969Z,83.12
2018-03-23T07:51:29.505Z,82.92
2018-03-23T07:53:57.025Z,82.72
2018-03-23T07:56:24.622Z,82.91
2018-03-23T07:58:52.168Z,84.27
2018-03-23T08:01:19.694Z,83.84
2018-03-23T08:03:47.302Z,83.01
2018-03-23T08:06:14.830Z,82.65
2018-03-23T08:08:42.363Z,83.04
2018-03-23T08:11:09.998Z,82.59
2018-03-23T08:13:37.541Z,82.56
2018-03-23T08:16:05.081Z,82.48
2018-03-23T08:18:32.602Z,82.44
2018-03-23T08:21:00.163Z,81.92
2018-03-23T08:23:27.718Z,82.11
2018-03-23T08:25:55.342Z,81.60
2018-03-23T08:28:22.871Z,81.45
2018-03-23T08:30:50.402Z,81.94
2018-03-23T08:33:17.921Z,81.69
2018-03-23T08:35:45.446Z,81.53
2018-03-23T08:38:12.977Z,81.36
2018-03-23T08:40:40.500Z,80.99
2018-03-23T08:43:08.033Z,80.90
2018-03-23T08:45:35.563Z,80.79
2018-03-23T08:48:03.112Z,80.61
2018-03-23T08:50:30.742Z,80.39
2018-03-23T08:52:58.271Z,80.20
2018-03-23T08:55:25.859Z,80.19
2018-03-23T08:57:53.417Z,80.63
2018-03-23T09:00:20.952Z,80.69
2018-03-23T09:02:48.539Z,80.33
2018-03-23T09:05:16.073Z,80.65
2018-03-23T09:07:43.593Z,80.28
2018-03-23T09:10:11.121Z,79.71
2018-03-23T09:12:38.676Z,79.48
2018-03-23T09:15:06.207Z,78.90
2018-03-23T09:17:33.739Z,79.63
2018-03-23T09:20:01.253Z,79.62
2018-03-23T09:22:28.790Z,79.13
2018-03-23T09:24:56.314Z,78.74
2018-03-23T09:27:23.838Z,78.96
2018-03-23T09:29:51.364Z,79.43
2018-03-23T09:32:18.884Z,78.96
2018-03-23T09:34:46.413Z,78.45
2018-03-23T09:37:13.968Z,78.75
2018-03-23T09:39:41.498Z,78.48
2018-03-23T09:42:09.020Z,78.81
2018-03-23T09:44:36.551Z,78.93
2018-03-23T09:47:04.103Z,79.07
2018-03-23T09:49:31.635Z,78.62
2018-03-23T09:51:59.168Z,78.40
2018-03-23T09:54:26.697Z,79.02
2018-03-23T09:56:54.223Z,79.04
2018-03-23T09:59:21.761Z,78.90
2018-03-23T10:01:49.285Z,79.01
2018-03-23T10:04:16.818Z,78.57
2018-03-23T10:06:44.337Z,78.60
2018-03-23T10:09:11.872Z,78.77
2018-03-23T10:11:39.384Z,78.71
2018-03-23T10:14:06.909Z,78.45
2018-03-23T10:16:34.445Z,79.08
2018-03-23T10:19:01.979Z,78.52
2018-03-23T10:21:29.503Z,78.84
2018-03-23T10:23:57.024Z,78.65
2018-03-23T10:26:24.558Z,78.60
2018-03-23T10:28:52.081Z,78.52
2018-03-23T10:31:19.614Z,78.31
2018-03-23T10:33:47.134Z,78.43
2018-03-23T10:36:14.663Z,78.79
2018-03-23T10:38:42.186Z,78.88
2018-03-23T10:41:09.713Z,79.16
2018-03-23T10:43:37.235Z,79.23
2018-03-23T10:46:04.761Z,78.99
2018-03-23T10:48:32.290Z,78.60
2018-03-23T10:50:59.812Z,79.05
2018-03-23T10:53:27.441Z,79.20
2018-03-23T10:55:54.938Z,79.68
2018-03-23T10:58:22.457Z,79.38
2018-03-23T11:00:55.654Z,79.71
2018-03-23T11:03:23.369Z,79.93
2018-03-23T11:05:50.895Z,80.03
2018-03-23T11:08:19.255Z,80.05
2018-03-23T11:10:46.803Z,79.80
2018-03-23T11:13:14.342Z,79.18
2018-03-23T11:15:41.904Z,79.68
2018-03-23T11:18:09.426Z,79.46
2018-03-23T11:20:36.952Z,79.90
2018-03-23T11:23:04.510Z,79.78
2018-03-23T11:25:32.045Z,79.64
2018-03-23T11:27:59.598Z,79.80
2018-03-23T11:30:27.130Z,79.81
2018-03-23T11:32:54.657Z,79.70
2018-03-23T11:35:22.177Z,79.67
2018-03-23T11:37:49.702Z,79.54
2018-03-23T11:40:17.222Z,79.58
2018-03-23T11:42:44.761Z,79.65
2018-03-23T11:45:12.282Z,79.74
2018-03-23T11:47:39.831Z,80.11
2018-03-23T11:50:07.374Z,80.26
2018-03-23T11:52:34.902Z,80.46
2018-03-23T11:55:02.459Z,81.14
2018-03-23T11:57:29.986Z,81.56
2018-03-23T11:59:57.538Z,81.51
2018-03-23T12:02:25.073Z,81.37
2018-03-23T12:04:52.617Z,81.44
2018-03-23T12:07:20.146Z,81.75
2018-03-23T12:09:47.683Z,81.51
2018-03-23T12:12:15.205Z,81.28
2018-03-23T12:14:42.772Z,80.92
2018-03-23T12:17:10.322Z,80.43
2018-03-23T12:19:37.862Z,80.25
2018-03-23T12:22:05.383Z,80.24
2018-03-23T12:24:32.901Z,80.41
2018-03-23T12:27:00.435Z,80.52
2018-03-23T12:29:27.960Z,80.23
2018-03-23T12:31:55.499Z,80.69
2018-03-23T12:34:23.034Z,80.94
2018-03-23T12:36:50.564Z,80.98
2018-03-23T12:39:18.109Z,81.34
2018-03-23T12:41:45.658Z,81.30
2018-03-23T12:44:13.202Z,81.60
2018-03-23T12:46:40.743Z,81.69
2018-03-23T12:49:08.299Z,81.53
2018-03-23T12:51:35.815Z,81.15
2018-03-23T12:54:03.334Z,81.74
2018-03-23T12:56:30.890Z,81.23
2018-03-23T12:58:58.465Z,80.95
2018-03-23T13:01:25.996Z,80.81
2018-03-23T13:03:53.568Z,80.58
2018-03-23T13:06:21.133Z,80.36
2018-03-23T13:08:48.672Z,80.15
2018-03-23T13:11:16.237Z,79.80
2018-03-23T13:13:43.768Z,79.79
2018-03-23T13:16:11.290Z,79.90
2018-03-23T13:18:38.823Z,79.76
2018-03-23T13:21:06.425Z,80.09
2018-03-23T13:23:34.007Z,79.65
2018-03-23T13:26:01.533Z,79.12
2018-03-23T13:28:29.062Z,79.21
2018-03-23T13:30:56.610Z,79.13
2018-03-23T13:33:24.144Z,79.27
2018-03-23T13:35:51.690Z,79.41
2018-03-23T13:38:19.267Z,79.64
2018-03-23T13:40:46.794Z,79.49
2018-03-23T13:43:14.349Z,79.26
2018-03-23T13:45:41.945Z,79.19
2018-03-23T13:48:09.507Z,79.17
2018-03-23T13:50:37.061Z,79.20
2018-03-23T13:53:04.606Z,79.21
2018-03-23T13:55:32.151Z,79.57
2018-03-23T13:57:59.676Z,79.72
2018-03-23T14:00:32.849Z,79.49
2018-03-23T14:03:00.398Z,79.66
2018-03-23T14:05:27.917Z,79.36
2018-03-23T14:07:55.447Z,78.62
2018-03-23T14:10:22.969Z,78.36
2018-03-23T14:12:50.499Z,77.80
2018-03-23T14:15:18.048Z,77.67
2018-03-23T14:17:45.675Z,77.54
2018-03-23T14:20:13.216Z,77.05
2018-03-23T14:22:40.794Z,76.72
2018-03-23T14:25:08.349Z,77.08
2018-03-23T14:27:35.901Z,76.92
2018-03-23T14:30:03.448Z,76.83
2018-03-23T14:32:30.974Z,77.10
2018-03-23T14:34:58.493Z,76.72
2018-03-23T14:37:26.030Z,76.91
2018-03-23T14:39:53.583Z,76.92
2018-03-23T14:42:21.113Z,76.40
2018-03-23T14:44:48.646Z,76.87
2018-03-23T14:47:16.300Z,77.02
2018-03-23T14:49:43.844Z,76.74
2018-03-23T14:52:11.380Z,77.06
2018-03-23T14:54:38.910Z,77.14
2018-03-23T14:57:06.439Z,76.96
2018-03-23T14:59:34.782Z,77.24
2018-03-23T15:02:02.296Z,77.62
2018-03-23T15:04:29.822Z,76.88
2018-03-23T15:06:57.366Z,76.74
2018-03-23T15:09:24.885Z,76.65
2018-03-23T15:11:52.485Z,77.19
2018-03-23T15:14:20.075Z,77.02
2018-03-23T15:16:47.632Z,77.12
2018-03-23T15:19:15.191Z,77.13
2018-03-23T15:21:42.774Z,77.11
2018-03-23T15:24:10.282Z,77.28
2018-03-23T15:26:37.807Z,77.31
2018-03-23T15:29:05.360Z,76.96
2018-03-23T15:31:32.888Z,77.07
2018-03-23T15:34:00.414Z,77.07
2018-03-23T15:36:27.933Z,77.18
2018-03-23T15:38:55.505Z,77.43
2018-03-23T15:41:23.033Z,77.00
2018-03-23T15:43:50.587Z,76.93
2018-03-23T15:46:18.117Z,77.23
2018-03-23T15:48:45.657Z,77.25
2018-03-23T15:51:13.204Z,77.60
2018-03-23T15:53:40.792Z,77.87
2018-03-23T15:56:08.324Z,77.62
2018-03-23T15:58:35.842Z,77.97
2018-03-23T16:01:03.376Z,77.75
2018-03-23T16:03:30.901Z,77.51
2018-03-23T16:05:58.494Z,77.58
2018-03-23T16:08:26.019Z,77.58
2018-03-23T16:10:53.542Z,77.50
2018-03-23T16:13:21.151Z,77.31
2018-03-23T16:15:48.638Z,77.23
2018-03-23T16:18:16.157Z,77.09
2018-03-23T16:20:43.753Z,77.14
2018-03-23T16:23:11.308Z,76.95
2018-03-23T16:25:38.872Z,76.98
2018-03-23T16:28:06.384Z,76.97
2018-03-23T16:30:34.607Z,77.07
2018-03-23T16:33:02.133Z,76.89
2018-03-23T16:35:29.830Z,77.07
2018-03-23T16:37:57.353Z,77.10
2018-03-23T16:40:24.874Z,76.94
2018-03-23T16:42:52.405Z,77.07
2018-03-23T16:45:19.969Z,77.27
2018-03-23T16:47:47.530Z,77.17
2018-03-23T16:50:15.057Z,77.19
2018-03-23T16:52:42.620Z,77.19
2018-03-23T16:55:10.144Z,77.43
2018-03-23T16:57:37.890Z,77.65
2018-03-23T17:00:05.634Z,77.79
2018-03-23T17:02:33.297Z,77.69
2018-03-23T17:05:00.855Z,77.80
2018-03-23T17:07:28.382Z,77.69
2018-03-23T17:09:55.960Z,77.75
2018-03-23T17:12:23.537Z,77.50
2018-03-23T17:14:51.115Z,77.64
2018-03-23T17:17:18.652Z,77.98
2018-03-23T17:19:46.182Z,77.95
2018-03-23T17:22:13.710Z,78.35
2018-03-23T17:24:41.236Z,78.61
2018-03-23T17:27:08.757Z,78.64
2018-03-23T17:29:36.293Z,78.53
2018-03-23T17:32:03.856Z,78.63
2018-03-23T17:34:31.395Z,78.55
2018-03-23T17:36:58.931Z,78.03
2018-03-23T17:39:26.458Z,78.03
2018-03-23T17:41:54.058Z,78.29
2018-03-23T17:44:21.603Z,78.84
2018-03-23T17:46:49.151Z,78.61
2018-03-23T17:49:16.726Z,78.56
2018-03-23T17:51:44.295Z,78.68
2018-03-23T17:54:11.817Z,78.73
2018-03-23T17:56:39.351Z,79.12
2018-03-23T17:59:06.968Z,79.10
2018-03-23T18:01:34.487Z,79.12
2018-03-23T18:04:02.024Z,79.16
2018-03-23T18:06:29.552Z,79.86
2018-03-23T18:08:57.143Z,80.10
2018-03-23T18:11:24.670Z,80.11
2018-03-23T18:13:52.186Z,80.89
2018-03-23T18:16:19.718Z,80.69
2018-03-23T18:18:47.353Z,80.35
2018-03-23T18:21:14.884Z,80.08
2018-03-23T18:23:42.414Z,80.51
2018-03-23T18:26:09.942Z,80.81
2018-03-23T18:28:37.601Z,80.92
2018-03-23T18:31:05.150Z,80.98
2018-03-23T18:33:32.682Z,80.48
2018-03-23T18:36:00.275Z,80.81
2018-03-23T18:38:27.801Z,80.92
2018-03-23T18:40:55.331Z,80.36
2018-03-23T18:43:22.873Z,80.48
2018-03-23T18:45:50.408Z,80.49
2018-03-23T18:48:17.971Z,80.46
2018-03-23T18:50:45.524Z,80.75
2018-03-23T18:53:13.114Z,80.65
2018-03-23T18:55:40.655Z,80.21
2018-03-23T18:58:08.177Z,80.33
2018-03-23T19:00:35.706Z,80.40
2018-03-23T19:03:03.236Z,81.16
2018-03-23T19:05:30.762Z,81.25
2018-03-23T19:07:58.279Z,81.08
2018-03-23T19:10:25.811Z,80.51
2018-03-23T19:12:53.368Z,80.74
2018-03-23T19:15:20.913Z,80.77
2018-03-23T19:17:48.450Z,81.55
2018-03-23T19:20:15.973Z,81.79
2018-03-23T19:22:43.505Z,81.34
2018-03-23T19:25:11.035Z,81.82
2018-03-23T19:27:38.558Z,81.13
2018-03-23T19:30:06.082Z,81.07
2018-03-23T19:32:33.611Z,81.37
2018-03-23T19:35:01.134Z,81.46
2018-03-23T19:37:28.659Z,81.59
2018-03-23T19:39:56.180Z,81.74
2018-03-23T19:42:23.749Z,81.33
2018-03-23T19:44:51.272Z,81.26
2018-03-23T19:47:18.842Z,80.98
2018-03-23T19:49:46.389Z,80.95
2018-03-23T19:52:13.914Z,81.30
2018-03-23T19:54:41.436Z,80.70
2018-03-23T19:57:09.008Z,81.24
2018-03-23T19:59:36.595Z,80.87
2018-03-23T20:02:04.154Z,80.94
2018-03-23T20:04:31.689Z,81.04
2018-03-23T20:06:59.275Z,80.78
2018-03-23T20:09:26.804Z,80.76
2018-03-23T20:11:54.326Z,80.65
2018-03-23T20:14:21.924Z,80.96
2018-03-23T20:16:49.451Z,80.42
2018-03-23T20:19:16.976Z,80.64
2018-03-23T20:21:44.506Z,80.96
2018-03-23T20:24:17.581Z,80.66
2018-03-23T20:26:45.105Z,80.63
2018-03-23T20:29:12.813Z,80.40
2018-03-23T20:31:45.856Z,80.31
2018-03-23T20:34:13.491Z,80.74
2018-03-23T20:36:41.051Z,80.52
2018-03-23T20:39:08.676Z,80.89
2018-03-23T20:41:36.384Z,80.58
2018-03-23T20:44:04.145Z,80.63
2018-03-23T20:46:31.672Z,80.68
2018-03-23T20:48:59.222Z,80.58
2018-03-23T20:51:26.783Z,80.58
2018-03-23T20:53:54.327Z,80.64
2018-03-23T20:56:21.870Z,80.57
2018-03-23T20:58:49.506Z,80.63
2018-03-23T21:01:17.269Z,81.12
2018-03-23T21:03:44.928Z,80.59
2018-03-23T21:06:12.553Z,80.80
2018-03-23T21:08:40.149Z,81.29
2018-03-23T21:11:07.746Z,81.60
2018-03-23T21:13:35.289Z,80.85
2018-03-23T21:16:02.808Z,81.38
2018-03-23T21:18:30.320Z,81.25
2018-03-23T21:20:57.854Z,81.91
2018-03-23T21:23:25.413Z,81.40
2018-03-23T21:25:52.944Z,81.16
2018-03-23T21:28:20.462Z,81.42
2018-03-23T21:30:47.985Z,81.18
2018-03-23T21:33:15.544Z,81.03
2018-03-23T21:35:43.074Z,80.63
2018-03-23T21:38:10.593Z,81.06
2018-03-23T21:40:38.122Z,81.08
2018-03-23T21:43:05.682Z,80.95
2018-03-23T21:45:33.248Z,80.97
2018-03-23T21:48:00.782Z,81.01
2018-03-23T21:50:28.299Z,80.70
2018-03-23T21:52:55.838Z,80.85
2018-03-23T21:55:23.357Z,80.69
2018-03-23T21:57:50.910Z,80.54
2018-03-23T22:00:18.503Z,80.69
2018-03-23T22:02:46.035Z,81.13
2018-03-23T22:05:13.554Z,80.71
2018-03-23T22:07:41.086Z,81.03
2018-03-23T22:10:08.615Z,81.01
2018-03-23T22:12:36.158Z,80.64
2018-03-23T22:15:03.693Z,80.64
2018-03-23T22:17:31.216Z,80.60
2018-03-23T22:19:58.780Z,80.73
2018-03-23T22:22:26.304Z,80.69
2018-03-23T22:24:53.900Z,80.68
2018-03-23T22:27:21.457Z,80.34
2018-03-23T22:29:49.081Z,80.40
2018-03-23T22:32:16.606Z,80.29
2018-03-23T22:34:44.141Z,80.40
2018-03-23T22:37:11.667Z,80.20
2018-03-23T22:39:39.217Z,80.04
2018-03-23T22:42:06.740Z,80.33
2018-03-23T22:44:34.366Z,80.10
2018-03-23T22:47:01.945Z,80.02
2018-03-23T22:49:29.496Z,80.03
2018-03-23T22:51:57.062Z,79.83
2018-03-23T22:54:24.605Z,79.94
2018-03-23T22:56:52.124Z,80.06
2018-03-23T22:59:19.661Z,79.71
2018-03-23T23:01:47.180Z,79.41
2018-03-23T23:04:14.710Z,79.33
2018-03-23T23:06:42.237Z,79.08
2018-03-23T23:09:09.757Z,79.20
2018-03-23T23:11:37.290Z,78.99
2018-03-23T23:14:04.824Z,78.87
2018-03-23T23:16:32.340Z,78.78
2018-03-23T23:18:59.867Z,78.47
2018-03-23T23:21:27.398Z,78.57
2018-03-23T23:23:54.931Z,78.32
2018-03-23T23:26:22.456Z,78.21
2018-03-23T23:28:49.979Z,78.23
2018-03-23T23:31:17.539Z,78.24
2018-03-23T23:33:45.069Z,78.14
2018-03-23T23:36:12.605Z,78.10
2018-03-23T23:38:40.127Z,78.12
2018-03-23T23:41:07.652Z,78.07
2018-03-23T23:43:35.175Z,78.00
2018-03-23T23:46:02.707Z,78.12
2018-03-23T23:48:30.239Z,77.93
2018-03-23T23:50:57.762Z,77.87
2018-03-23T23:53:25.282Z,77.79
2018-03-23T23:55:52.814Z,77.67
2018-03-23T23:58:20.338Z,77.26
